sensor_id;sensor_type;location;lat;lon;timestamp;temperature;humidity
38488;DHT22;57384;51.986;4.458;2023-04-27T00:02:28;7.40;55.60
38488;DHT22;57384;51.986;4.458;2023-04-27T00:05:14;7.40;55.70
38488;DHT22;57384;51.986;4.458;2023-04-27T00:07:58;7.40;55.80
38488;DHT22;57384;51.986;4.458;2023-04-27T00:10:42;7.30;55.80
38488;DHT22;57384;51.986;4.458;2023-04-27T00:13:27;7.30;55.90
38488;DHT22;57384;51.986;4.458;2023-04-27T00:16:12;7.20;55.90
38488;DHT22;57384;51.986;4.458;2023-04-27T00:18:59;7.20;56.00
38488;DHT22;57384;51.986;4.458;2023-04-27T00:21:43;7.20;56.10
38488;DHT22;57384;51.986;4.458;2023-04-27T00:24:27;7.10;56.10
38488;DHT22;57384;51.986;4.458;2023-04-27T00:27:11;7.10;56.10
38488;DHT22;57384;51.986;4.458;2023-04-27T00:29:56;7.00;56.10
38488;DHT22;57384;51.986;4.458;2023-04-27T00:32:40;7.00;56.10
38488;DHT22;57384;51.986;4.458;2023-04-27T00:35:24;7.00;56.10
38488;DHT22;57384;51.986;4.458;2023-04-27T00:38:09;6.90;56.10
38488;DHT22;57384;51.986;4.458;2023-04-27T00:41:04;6.90;56.20
38488;DHT22;57384;51.986;4.458;2023-04-27T00:43:51;6.80;56.40
38488;DHT22;57384;51.986;4.458;2023-04-27T00:46:36;6.80;56.20
38488;DHT22;57384;51.986;4.458;2023-04-27T00:49:20;6.80;56.20
38488;DHT22;57384;51.986;4.458;2023-04-27T00:52:05;6.70;56.30
38488;DHT22;57384;51.986;4.458;2023-04-27T00:54:50;6.80;56.50
38488;DHT22;57384;51.986;4.458;2023-04-27T00:57:37;6.70;56.50
38488;DHT22;57384;51.986;4.458;2023-04-27T01:00:22;6.60;56.50
38488;DHT22;57384;51.986;4.458;2023-04-27T01:03:06;6.60;56.50
38488;DHT22;57384;51.986;4.458;2023-04-27T01:05:51;6.60;56.60
38488;DHT22;57384;51.986;4.458;2023-04-27T01:08:35;6.50;56.50
38488;DHT22;57384;51.986;4.458;2023-04-27T01:11:37;6.50;56.60
38488;DHT22;57384;51.986;4.458;2023-04-27T01:14:24;6.50;56.70
38488;DHT22;57384;51.986;4.458;2023-04-27T01:17:12;6.40;56.70
38488;DHT22;57384;51.986;4.458;2023-04-27T01:19:56;6.40;56.80
38488;DHT22;57384;51.986;4.458;2023-04-27T01:22:40;6.40;56.70
38488;DHT22;57384;51.986;4.458;2023-04-27T01:25:25;6.30;56.70
38488;DHT22;57384;51.986;4.458;2023-04-27T01:28:09;6.30;56.70
38488;DHT22;57384;51.986;4.458;2023-04-27T01:30:53;6.30;56.80
38488;DHT22;57384;51.986;4.458;2023-04-27T01:33:38;6.20;56.80
38488;DHT22;57384;51.986;4.458;2023-04-27T01:36:22;6.20;56.90
38488;DHT22;57384;51.986;4.458;2023-04-27T01:39:06;6.20;56.90
38488;DHT22;57384;51.986;4.458;2023-04-27T01:41:51;6.20;57.00
38488;DHT22;57384;51.986;4.458;2023-04-27T01:44:37;6.10;57.00
38488;DHT22;57384;51.986;4.458;2023-04-27T01:47:22;6.10;57.00
38488;DHT22;57384;51.986;4.458;2023-04-27T01:50:06;6.10;57.00
38488;DHT22;57384;51.986;4.458;2023-04-27T01:53:03;6.00;57.00
38488;DHT22;57384;51.986;4.458;2023-04-27T01:55:47;6.00;57.10
38488;DHT22;57384;51.986;4.458;2023-04-27T01:58:31;6.00;57.10
38488;DHT22;57384;51.986;4.458;2023-04-27T02:01:21;5.90;57.20
38488;DHT22;57384;51.986;4.458;2023-04-27T02:04:06;5.90;57.40
38488;DHT22;57384;51.986;4.458;2023-04-27T02:06:50;5.90;57.40
38488;DHT22;57384;51.986;4.458;2023-04-27T02:09:34;5.80;57.40
38488;DHT22;57384;51.986;4.458;2023-04-27T02:12:18;5.80;57.50
38488;DHT22;57384;51.986;4.458;2023-04-27T02:15:02;5.80;57.50
38488;DHT22;57384;51.986;4.458;2023-04-27T02:17:53;5.80;57.60
38488;DHT22;57384;51.986;4.458;2023-04-27T02:20:37;5.70;57.60
38488;DHT22;57384;51.986;4.458;2023-04-27T02:23:24;5.70;57.80
38488;DHT22;57384;51.986;4.458;2023-04-27T02:26:15;5.70;58.00
38488;DHT22;57384;51.986;4.458;2023-04-27T02:28:59;5.60;58.10
38488;DHT22;57384;51.986;4.458;2023-04-27T02:31:46;5.60;58.10
38488;DHT22;57384;51.986;4.458;2023-04-27T02:34:31;5.60;58.20
38488;DHT22;57384;51.986;4.458;2023-04-27T02:37:15;5.60;58.20
38488;DHT22;57384;51.986;4.458;2023-04-27T02:39:59;5.60;58.20
38488;DHT22;57384;51.986;4.458;2023-04-27T02:42:44;5.60;58.50
38488;DHT22;57384;51.986;4.458;2023-04-27T02:45:28;5.50;58.50
38488;DHT22;57384;51.986;4.458;2023-04-27T02:48:12;5.50;58.60
38488;DHT22;57384;51.986;4.458;2023-04-27T02:50:56;5.50;58.70
38488;DHT22;57384;51.986;4.458;2023-04-27T02:53:47;5.50;58.80
38488;DHT22;57384;51.986;4.458;2023-04-27T02:56:31;5.50;58.90
38488;DHT22;57384;51.986;4.458;2023-04-27T02:59:21;5.50;58.80
38488;DHT22;57384;51.986;4.458;2023-04-27T03:02:05;5.50;58.90
38488;DHT22;57384;51.986;4.458;2023-04-27T03:04:53;5.40;58.80
38488;DHT22;57384;51.986;4.458;2023-04-27T03:07:37;5.40;58.90
38488;DHT22;57384;51.986;4.458;2023-04-27T03:10:21;5.40;58.80
38488;DHT22;57384;51.986;4.458;2023-04-27T03:13:05;5.40;58.90
38488;DHT22;57384;51.986;4.458;2023-04-27T03:15:53;5.40;59.10
38488;DHT22;57384;51.986;4.458;2023-04-27T03:18:38;5.40;59.20
38488;DHT22;57384;51.986;4.458;2023-04-27T03:21:22;5.40;59.20
38488;DHT22;57384;51.986;4.458;2023-04-27T03:24:07;5.30;59.30
38488;DHT22;57384;51.986;4.458;2023-04-27T03:26:57;5.40;59.40
38488;DHT22;57384;51.986;4.458;2023-04-27T03:29:44;5.30;59.50
38488;DHT22;57384;51.986;4.458;2023-04-27T03:32:34;5.30;59.30
38488;DHT22;57384;51.986;4.458;2023-04-27T03:35:21;5.30;59.40
38488;DHT22;57384;51.986;4.458;2023-04-27T03:38:06;5.30;59.40
38488;DHT22;57384;51.986;4.458;2023-04-27T03:40:51;5.30;59.40
38488;DHT22;57384;51.986;4.458;2023-04-27T03:43:41;5.20;59.40
38488;DHT22;57384;51.986;4.458;2023-04-27T03:46:29;5.20;59.60
38488;DHT22;57384;51.986;4.458;2023-04-27T03:49:13;5.20;59.50
38488;DHT22;57384;51.986;4.458;2023-04-27T03:51:58;5.20;59.40
38488;DHT22;57384;51.986;4.458;2023-04-27T03:54:42;5.20;59.30
38488;DHT22;57384;51.986;4.458;2023-04-27T03:57:26;5.20;59.30
38488;DHT22;57384;51.986;4.458;2023-04-27T04:00:14;5.20;59.30
38488;DHT22;57384;51.986;4.458;2023-04-27T04:03:02;5.20;59.40
38488;DHT22;57384;51.986;4.458;2023-04-27T04:05:46;5.20;59.60
38488;DHT22;57384;51.986;4.458;2023-04-27T04:08:31;5.20;59.60
38488;DHT22;57384;51.986;4.458;2023-04-27T04:11:15;5.10;59.70
38488;DHT22;57384;51.986;4.458;2023-04-27T04:13:59;5.10;59.80
38488;DHT22;57384;51.986;4.458;2023-04-27T04:16:44;5.10;59.90
38488;DHT22;57384;51.986;4.458;2023-04-27T04:19:28;5.10;60.00
38488;DHT22;57384;51.986;4.458;2023-04-27T04:22:12;5.10;60.10
38488;DHT22;57384;51.986;4.458;2023-04-27T04:24:56;5.10;60.10
38488;DHT22;57384;51.986;4.458;2023-04-27T04:27:40;5.10;60.00
38488;DHT22;57384;51.986;4.458;2023-04-27T04:30:24;5.10;60.00
38488;DHT22;57384;51.986;4.458;2023-04-27T04:33:08;5.00;59.90
38488;DHT22;57384;51.986;4.458;2023-04-27T04:35:53;5.00;60.00
38488;DHT22;57384;51.986;4.458;2023-04-27T04:38:37;5.00;59.90
38488;DHT22;57384;51.986;4.458;2023-04-27T04:41:21;5.10;60.00
38488;DHT22;57384;51.986;4.458;2023-04-27T04:44:05;5.00;60.00
38488;DHT22;57384;51.986;4.458;2023-04-27T04:46:49;5.00;60.00
38488;DHT22;57384;51.986;4.458;2023-04-27T04:49:33;5.00;60.00
38488;DHT22;57384;51.986;4.458;2023-04-27T04:52:17;5.00;60.00
38488;DHT22;57384;51.986;4.458;2023-04-27T04:55:02;5.00;60.00
38488;DHT22;57384;51.986;4.458;2023-04-27T04:57:46;4.90;59.80
38488;DHT22;57384;51.986;4.458;2023-04-27T05:00:30;4.90;59.80
38488;DHT22;57384;51.986;4.458;2023-04-27T05:03:14;4.90;59.90
38488;DHT22;57384;51.986;4.458;2023-04-27T05:05:59;4.90;59.90
38488;DHT22;57384;51.986;4.458;2023-04-27T05:08:43;4.90;60.00
38488;DHT22;57384;51.986;4.458;2023-04-27T05:11:27;4.90;60.10
38488;DHT22;57384;51.986;4.458;2023-04-27T05:14:11;4.90;60.30
38488;DHT22;57384;51.986;4.458;2023-04-27T05:16:55;4.90;60.40
38488;DHT22;57384;51.986;4.458;2023-04-27T05:19:39;4.90;60.50
38488;DHT22;57384;51.986;4.458;2023-04-27T05:22:24;4.90;60.50
38488;DHT22;57384;51.986;4.458;2023-04-27T05:25:08;5.00;60.50
38488;DHT22;57384;51.986;4.458;2023-04-27T05:27:52;5.00;60.50
38488;DHT22;57384;51.986;4.458;2023-04-27T05:30:36;4.90;60.40
38488;DHT22;57384;51.986;4.458;2023-04-27T05:33:20;5.00;60.40
38488;DHT22;57384;51.986;4.458;2023-04-27T05:36:04;5.00;60.30
38488;DHT22;57384;51.986;4.458;2023-04-27T05:38:49;5.00;60.30
38488;DHT22;57384;51.986;4.458;2023-04-27T05:41:33;5.00;60.30
38488;DHT22;57384;51.986;4.458;2023-04-27T05:44:17;5.10;60.50
38488;DHT22;57384;51.986;4.458;2023-04-27T05:47:01;5.10;60.70
38488;DHT22;57384;51.986;4.458;2023-04-27T05:49:49;5.20;60.90
38488;DHT22;57384;51.986;4.458;2023-04-27T05:52:34;5.20;61.10
38488;DHT22;57384;51.986;4.458;2023-04-27T05:55:18;5.20;61.10
38488;DHT22;57384;51.986;4.458;2023-04-27T05:58:02;5.30;61.30
38488;DHT22;57384;51.986;4.458;2023-04-27T06:00:46;5.40;61.50
38488;DHT22;57384;51.986;4.458;2023-04-27T06:03:31;5.40;61.60
38488;DHT22;57384;51.986;4.458;2023-04-27T06:06:15;5.50;61.60
38488;DHT22;57384;51.986;4.458;2023-04-27T06:08:59;5.50;61.60
38488;DHT22;57384;51.986;4.458;2023-04-27T06:11:43;5.60;61.80
38488;DHT22;57384;51.986;4.458;2023-04-27T06:14:27;5.70;61.80
38488;DHT22;57384;51.986;4.458;2023-04-27T06:17:11;5.80;62.10
38488;DHT22;57384;51.986;4.458;2023-04-27T06:19:55;5.90;62.10
38488;DHT22;57384;51.986;4.458;2023-04-27T06:22:40;6.00;62.20
38488;DHT22;57384;51.986;4.458;2023-04-27T06:25:24;6.20;62.20
38488;DHT22;57384;51.986;4.458;2023-04-27T06:28:11;6.20;62.20
38488;DHT22;57384;51.986;4.458;2023-04-27T06:30:55;6.30;62.00
38488;DHT22;57384;51.986;4.458;2023-04-27T06:33:39;6.40;61.80
38488;DHT22;57384;51.986;4.458;2023-04-27T06:36:24;6.50;61.80
38488;DHT22;57384;51.986;4.458;2023-04-27T06:39:09;6.70;61.80
38488;DHT22;57384;51.986;4.458;2023-04-27T06:41:53;6.80;61.60
38488;DHT22;57384;51.986;4.458;2023-04-27T06:44:37;6.90;61.50
38488;DHT22;57384;51.986;4.458;2023-04-27T06:47:22;7.00;61.80
38488;DHT22;57384;51.986;4.458;2023-04-27T06:50:07;7.10;61.10
38488;DHT22;57384;51.986;4.458;2023-04-27T06:52:52;7.20;61.20
38488;DHT22;57384;51.986;4.458;2023-04-27T06:55:39;7.30;61.00
38488;DHT22;57384;51.986;4.458;2023-04-27T06:58:23;7.40;60.90
38488;DHT22;57384;51.986;4.458;2023-04-27T07:01:07;7.50;60.70
38488;DHT22;57384;51.986;4.458;2023-04-27T07:03:51;7.60;60.50
38488;DHT22;57384;51.986;4.458;2023-04-27T07:06:35;7.70;60.40
38488;DHT22;57384;51.986;4.458;2023-04-27T07:09:20;7.90;60.30
38488;DHT22;57384;51.986;4.458;2023-04-27T07:12:04;8.10;60.20
38488;DHT22;57384;51.986;4.458;2023-04-27T07:14:48;8.10;59.90
38488;DHT22;57384;51.986;4.458;2023-04-27T07:17:32;8.30;59.80
38488;DHT22;57384;51.986;4.458;2023-04-27T07:20:17;8.40;59.60
38488;DHT22;57384;51.986;4.458;2023-04-27T07:33:41;8.60;59.40
38488;DHT22;57384;51.986;4.458;2023-04-27T07:36:26;9.30;59.10
38488;DHT22;57384;51.986;4.458;2023-04-27T07:39:10;9.60;58.60
38488;DHT22;57384;51.986;4.458;2023-04-27T07:41:57;9.80;58.10
38488;DHT22;57384;51.986;4.458;2023-04-27T07:44:42;10.00;57.90
38488;DHT22;57384;51.986;4.458;2023-04-27T07:47:39;10.10;57.80
38488;DHT22;57384;51.986;4.458;2023-04-27T07:50:35;10.30;57.70
38488;DHT22;57384;51.986;4.458;2023-04-27T07:53:25;10.40;57.50
38488;DHT22;57384;51.986;4.458;2023-04-27T07:56:15;10.60;57.40
38488;DHT22;57384;51.986;4.458;2023-04-27T07:59:02;10.80;57.70
38488;DHT22;57384;51.986;4.458;2023-04-27T08:01:54;10.90;57.30
38488;DHT22;57384;51.986;4.458;2023-04-27T08:04:38;11.10;57.30
38488;DHT22;57384;51.986;4.458;2023-04-27T08:07:23;11.20;57.00
38488;DHT22;57384;51.986;4.458;2023-04-27T08:10:10;11.40;56.90
38488;DHT22;57384;51.986;4.458;2023-04-27T08:13:08;11.60;56.80
38488;DHT22;57384;51.986;4.458;2023-04-27T08:15:52;11.80;56.40
38488;DHT22;57384;51.986;4.458;2023-04-27T08:18:44;12.10;55.80
38488;DHT22;57384;51.986;4.458;2023-04-27T08:21:34;12.10;55.50
38488;DHT22;57384;51.986;4.458;2023-04-27T08:24:21;12.30;55.90
38488;DHT22;57384;51.986;4.458;2023-04-27T08:27:11;12.50;55.60
38488;DHT22;57384;51.986;4.458;2023-04-27T08:30:05;12.60;55.00
38488;DHT22;57384;51.986;4.458;2023-04-27T08:32:49;12.80;54.80
38488;DHT22;57384;51.986;4.458;2023-04-27T08:35:36;12.90;55.00
38488;DHT22;57384;51.986;4.458;2023-04-27T08:38:23;13.10;55.10
38488;DHT22;57384;51.986;4.458;2023-04-27T08:41:24;13.30;54.90
38488;DHT22;57384;51.986;4.458;2023-04-27T08:44:27;13.40;54.80
38488;DHT22;57384;51.986;4.458;2023-04-27T08:47:16;13.60;55.00
38488;DHT22;57384;51.986;4.458;2023-04-27T08:50:05;13.70;54.60
38488;DHT22;57384;51.986;4.458;2023-04-27T08:52:52;13.90;54.10
38488;DHT22;57384;51.986;4.458;2023-04-27T08:55:38;14.00;53.70
38488;DHT22;57384;51.986;4.458;2023-04-27T08:58:37;14.10;53.30
38488;DHT22;57384;51.986;4.458;2023-04-27T09:01:27;14.30;52.70
38488;DHT22;57384;51.986;4.458;2023-04-27T09:04:11;14.40;52.80
38488;DHT22;57384;51.986;4.458;2023-04-27T09:06:55;14.60;52.90
38488;DHT22;57384;51.986;4.458;2023-04-27T09:09:40;14.80;52.70
38488;DHT22;57384;51.986;4.458;2023-04-27T09:12:27;14.90;52.80
38488;DHT22;57384;51.986;4.458;2023-04-27T09:15:20;15.10;52.70
38488;DHT22;57384;51.986;4.458;2023-04-27T09:18:15;15.20;52.40
38488;DHT22;57384;51.986;4.458;2023-04-27T09:20:59;15.30;51.80
38488;DHT22;57384;51.986;4.458;2023-04-27T09:23:51;15.50;51.50
38488;DHT22;57384;51.986;4.458;2023-04-27T09:26:49;15.60;51.80
38488;DHT22;57384;51.986;4.458;2023-04-27T09:29:37;15.80;51.00
38488;DHT22;57384;51.986;4.458;2023-04-27T09:32:24;15.80;51.90
38488;DHT22;57384;51.986;4.458;2023-04-27T09:35:23;16.00;51.00
38488;DHT22;57384;51.986;4.458;2023-04-27T09:38:10;16.10;50.70
38488;DHT22;57384;51.986;4.458;2023-04-27T09:40:55;16.20;50.60
38488;DHT22;57384;51.986;4.458;2023-04-27T09:43:42;16.30;51.40
38488;DHT22;57384;51.986;4.458;2023-04-27T09:46:28;16.50;51.20
38488;DHT22;57384;51.986;4.458;2023-04-27T09:49:16;16.60;50.80
38488;DHT22;57384;51.986;4.458;2023-04-27T09:52:02;16.70;50.20
38488;DHT22;57384;51.986;4.458;2023-04-27T09:54:46;16.80;50.10
38488;DHT22;57384;51.986;4.458;2023-04-27T09:57:54;17.00;49.70
38488;DHT22;57384;51.986;4.458;2023-04-27T10:09:47;17.50;49.80
38488;DHT22;57384;51.986;4.458;2023-04-27T10:12:33;17.60;50.20
38488;DHT22;57384;51.986;4.458;2023-04-27T10:15:18;17.60;50.40
38488;DHT22;57384;51.986;4.458;2023-04-27T10:18:09;17.80;50.00
38488;DHT22;57384;51.986;4.458;2023-04-27T10:20:54;17.90;50.40
38488;DHT22;57384;51.986;4.458;2023-04-27T10:23:48;18.10;49.80
38488;DHT22;57384;51.986;4.458;2023-04-27T10:26:32;18.20;49.60
38488;DHT22;57384;51.986;4.458;2023-04-27T10:29:16;18.40;48.70
38488;DHT22;57384;51.986;4.458;2023-04-27T10:32:05;18.50;48.50
38488;DHT22;57384;51.986;4.458;2023-04-27T10:34:51;18.60;49.20
38488;DHT22;57384;51.986;4.458;2023-04-27T10:37:45;18.80;48.80
38488;DHT22;57384;51.986;4.458;2023-04-27T10:40:32;18.90;48.80
38488;DHT22;57384;51.986;4.458;2023-04-27T10:43:16;19.00;47.90
38488;DHT22;57384;51.986;4.458;2023-04-27T10:46:09;19.10;46.80
38488;DHT22;57384;51.986;4.458;2023-04-27T10:48:54;19.20;47.40
38488;DHT22;57384;51.986;4.458;2023-04-27T10:51:40;19.30;46.70
38488;DHT22;57384;51.986;4.458;2023-04-27T10:54:27;19.40;46.20
38488;DHT22;57384;51.986;4.458;2023-04-27T10:57:12;19.50;45.60
38488;DHT22;57384;51.986;4.458;2023-04-27T10:59:56;19.60;46.10
38488;DHT22;57384;51.986;4.458;2023-04-27T11:02:43;19.70;46.10
38488;DHT22;57384;51.986;4.458;2023-04-27T11:05:27;19.80;45.70
38488;DHT22;57384;51.986;4.458;2023-04-27T11:08:16;19.90;44.90
38488;DHT22;57384;51.986;4.458;2023-04-27T11:11:01;20.00;45.40
38488;DHT22;57384;51.986;4.458;2023-04-27T11:13:47;20.10;43.90
38488;DHT22;57384;51.986;4.458;2023-04-27T11:16:32;20.20;44.90
38488;DHT22;57384;51.986;4.458;2023-04-27T11:19:22;20.30;44.10
38488;DHT22;57384;51.986;4.458;2023-04-27T11:22:06;20.50;44.00
38488;DHT22;57384;51.986;4.458;2023-04-27T11:24:52;20.60;43.60
38488;DHT22;57384;51.986;4.458;2023-04-27T11:27:38;20.70;44.00
38488;DHT22;57384;51.986;4.458;2023-04-27T11:30:29;20.90;44.10
38488;DHT22;57384;51.986;4.458;2023-04-27T11:33:16;21.00;44.40
38488;DHT22;57384;51.986;4.458;2023-04-27T11:36:00;21.20;43.80
38488;DHT22;57384;51.986;4.458;2023-04-27T11:38:47;21.30;43.60
38488;DHT22;57384;51.986;4.458;2023-04-27T11:41:35;21.40;42.60
38488;DHT22;57384;51.986;4.458;2023-04-27T11:48:08;21.80;42.90
38488;DHT22;57384;51.986;4.458;2023-04-27T11:51:12;21.90;41.90
38488;DHT22;57384;51.986;4.458;2023-04-27T11:54:06;22.10;42.10
38488;DHT22;57384;51.986;4.458;2023-04-27T11:57:07;22.30;42.10
38488;DHT22;57384;51.986;4.458;2023-04-27T11:59:53;22.50;42.40
38488;DHT22;57384;51.986;4.458;2023-04-27T12:02:37;22.60;41.70
38488;DHT22;57384;51.986;4.458;2023-04-27T12:05:22;22.70;41.60
38488;DHT22;57384;51.986;4.458;2023-04-27T12:08:06;22.90;39.60
38488;DHT22;57384;51.986;4.458;2023-04-27T12:10:50;23.00;40.80
38488;DHT22;57384;51.986;4.458;2023-04-27T12:13:34;23.00;39.70
38488;DHT22;57384;51.986;4.458;2023-04-27T12:16:19;23.10;40.00
38488;DHT22;57384;51.986;4.458;2023-04-27T12:19:03;23.20;40.90
38488;DHT22;57384;51.986;4.458;2023-04-27T12:21:48;23.20;39.90
38488;DHT22;57384;51.986;4.458;2023-04-27T12:24:32;23.30;41.10
38488;DHT22;57384;51.986;4.458;2023-04-27T12:27:16;23.30;39.80
38488;DHT22;57384;51.986;4.458;2023-04-27T12:30:02;23.30;39.50
38488;DHT22;57384;51.986;4.458;2023-04-27T12:32:46;23.40;39.40
38488;DHT22;57384;51.986;4.458;2023-04-27T12:35:30;23.50;39.40
38488;DHT22;57384;51.986;4.458;2023-04-27T12:38:15;23.60;39.30
38488;DHT22;57384;51.986;4.458;2023-04-27T12:41:00;23.70;39.50
38488;DHT22;57384;51.986;4.458;2023-04-27T12:43:45;23.80;39.70
38488;DHT22;57384;51.986;4.458;2023-04-27T12:46:29;23.80;40.00
38488;DHT22;57384;51.986;4.458;2023-04-27T12:49:13;23.90;40.30
38488;DHT22;57384;51.986;4.458;2023-04-27T12:52:00;24.00;39.60
38488;DHT22;57384;51.986;4.458;2023-04-27T12:54:44;24.10;38.30
38488;DHT22;57384;51.986;4.458;2023-04-27T12:57:28;24.10;38.10
38488;DHT22;57384;51.986;4.458;2023-04-27T13:00:12;24.20;39.00
38488;DHT22;57384;51.986;4.458;2023-04-27T13:02:57;24.20;38.50
38488;DHT22;57384;51.986;4.458;2023-04-27T13:05:41;24.20;39.80
38488;DHT22;57384;51.986;4.458;2023-04-27T13:08:25;24.30;38.50
38488;DHT22;57384;51.986;4.458;2023-04-27T13:11:22;24.30;38.70
38488;DHT22;57384;51.986;4.458;2023-04-27T13:14:18;24.40;38.50
38488;DHT22;57384;51.986;4.458;2023-04-27T13:17:02;24.40;38.30
38488;DHT22;57384;51.986;4.458;2023-04-27T13:19:47;24.40;37.20
38488;DHT22;57384;51.986;4.458;2023-04-27T13:22:31;24.40;38.50
38488;DHT22;57384;51.986;4.458;2023-04-27T13:25:16;24.40;38.10
38488;DHT22;57384;51.986;4.458;2023-04-27T13:28:00;24.40;36.60
38488;DHT22;57384;51.986;4.458;2023-04-27T13:30:45;24.40;36.90
38488;DHT22;57384;51.986;4.458;2023-04-27T13:33:30;24.40;37.60
38488;DHT22;57384;51.986;4.458;2023-04-27T13:36:15;24.30;37.30
38488;DHT22;57384;51.986;4.458;2023-04-27T13:38:59;24.20;37.90
38488;DHT22;57384;51.986;4.458;2023-04-27T13:41:43;24.20;36.70
38488;DHT22;57384;51.986;4.458;2023-04-27T13:44:27;24.20;36.50
38488;DHT22;57384;51.986;4.458;2023-04-27T13:47:11;24.10;36.90
38488;DHT22;57384;51.986;4.458;2023-04-27T13:49:55;24.10;37.20
38488;DHT22;57384;51.986;4.458;2023-04-27T13:52:40;24.00;36.60
38488;DHT22;57384;51.986;4.458;2023-04-27T13:55:24;24.00;36.50
38488;DHT22;57384;51.986;4.458;2023-04-27T13:58:11;23.90;36.50
38488;DHT22;57384;51.986;4.458;2023-04-27T14:00:55;23.80;36.50
38488;DHT22;57384;51.986;4.458;2023-04-27T14:03:40;23.70;36.40
38488;DHT22;57384;51.986;4.458;2023-04-27T14:06:24;23.60;35.90
38488;DHT22;57384;51.986;4.458;2023-04-27T14:09:15;23.50;36.00
38488;DHT22;57384;51.986;4.458;2023-04-27T14:12:01;23.50;35.90
38488;DHT22;57384;51.986;4.458;2023-04-27T14:14:51;23.40;36.20
38488;DHT22;57384;51.986;4.458;2023-04-27T14:17:38;23.40;36.50
38488;DHT22;57384;51.986;4.458;2023-04-27T14:20:22;23.30;35.70
38488;DHT22;57384;51.986;4.458;2023-04-27T14:23:06;23.20;35.60
38488;DHT22;57384;51.986;4.458;2023-04-27T14:25:51;23.10;36.20
38488;DHT22;57384;51.986;4.458;2023-04-27T14:28:35;23.10;36.60
38488;DHT22;57384;51.986;4.458;2023-04-27T14:31:20;23.00;35.70
38488;DHT22;57384;51.986;4.458;2023-04-27T14:34:05;23.00;35.60
38488;DHT22;57384;51.986;4.458;2023-04-27T14:36:50;22.90;35.70
38488;DHT22;57384;51.986;4.458;2023-04-27T14:39:34;22.90;35.70
38488;DHT22;57384;51.986;4.458;2023-04-27T14:42:20;22.90;36.20
38488;DHT22;57384;51.986;4.458;2023-04-27T14:45:04;22.80;34.80
38488;DHT22;57384;51.986;4.458;2023-04-27T14:47:49;22.70;34.70
38488;DHT22;57384;51.986;4.458;2023-04-27T14:50:33;22.60;35.50
38488;DHT22;57384;51.986;4.458;2023-04-27T14:53:17;22.50;35.00
38488;DHT22;57384;51.986;4.458;2023-04-27T14:56:04;22.40;35.10
38488;DHT22;57384;51.986;4.458;2023-04-27T14:58:51;22.40;34.90
38488;DHT22;57384;51.986;4.458;2023-04-27T15:01:36;22.30;35.20
38488;DHT22;57384;51.986;4.458;2023-04-27T15:04:20;22.20;36.20
38488;DHT22;57384;51.986;4.458;2023-04-27T15:07:04;22.10;35.60
38488;DHT22;57384;51.986;4.458;2023-04-27T15:09:51;22.10;35.40
38488;DHT22;57384;51.986;4.458;2023-04-27T15:12:36;21.90;35.50
38488;DHT22;57384;51.986;4.458;2023-04-27T15:15:20;21.80;35.10
38488;DHT22;57384;51.986;4.458;2023-04-27T15:18:04;21.60;35.40
38488;DHT22;57384;51.986;4.458;2023-04-27T15:20:55;21.60;36.20
38488;DHT22;57384;51.986;4.458;2023-04-27T15:23:45;21.60;35.80
38488;DHT22;57384;51.986;4.458;2023-04-27T15:26:34;21.50;35.50
38488;DHT22;57384;51.986;4.458;2023-04-27T15:29:18;21.40;36.00
38488;DHT22;57384;51.986;4.458;2023-04-27T15:32:03;21.30;36.60
38488;DHT22;57384;51.986;4.458;2023-04-27T15:34:48;21.20;36.30
38488;DHT22;57384;51.986;4.458;2023-04-27T15:37:38;21.10;36.50
38488;DHT22;57384;51.986;4.458;2023-04-27T15:40:22;21.00;36.20
38488;DHT22;57384;51.986;4.458;2023-04-27T15:43:06;20.90;36.40
38488;DHT22;57384;51.986;4.458;2023-04-27T15:45:50;20.80;37.00
38488;DHT22;57384;51.986;4.458;2023-04-27T15:48:34;20.70;36.70
38488;DHT22;57384;51.986;4.458;2023-04-27T15:51:20;20.60;37.10
38488;DHT22;57384;51.986;4.458;2023-04-27T15:54:04;20.50;36.60
38488;DHT22;57384;51.986;4.458;2023-04-27T15:56:48;20.50;36.60
38488;DHT22;57384;51.986;4.458;2023-04-27T15:59:34;20.40;36.40
38488;DHT22;57384;51.986;4.458;2023-04-27T16:02:19;20.30;36.30
38488;DHT22;57384;51.986;4.458;2023-04-27T16:05:03;20.20;36.90
38488;DHT22;57384;51.986;4.458;2023-04-27T16:07:48;20.10;36.60
38488;DHT22;57384;51.986;4.458;2023-04-27T16:10:32;20.00;36.60
38488;DHT22;57384;51.986;4.458;2023-04-27T16:13:16;19.90;36.70
38488;DHT22;57384;51.986;4.458;2023-04-27T16:16:01;19.80;37.00
38488;DHT22;57384;51.986;4.458;2023-04-27T16:18:45;19.80;37.40
38488;DHT22;57384;51.986;4.458;2023-04-27T16:21:29;19.70;37.00
38488;DHT22;57384;51.986;4.458;2023-04-27T16:24:13;19.50;36.80
38488;DHT22;57384;51.986;4.458;2023-04-27T16:27:00;19.40;37.00
38488;DHT22;57384;51.986;4.458;2023-04-27T16:29:45;19.30;36.70
38488;DHT22;57384;51.986;4.458;2023-04-27T16:32:29;19.20;36.70
38488;DHT22;57384;51.986;4.458;2023-04-27T16:35:14;19.10;37.30
38488;DHT22;57384;51.986;4.458;2023-04-27T16:37:59;19.00;37.20
38488;DHT22;57384;51.986;4.458;2023-04-27T16:40:43;18.90;37.20
38488;DHT22;57384;51.986;4.458;2023-04-27T16:43:27;18.80;37.30
38488;DHT22;57384;51.986;4.458;2023-04-27T16:46:11;18.70;37.40
38488;DHT22;57384;51.986;4.458;2023-04-27T16:48:55;18.70;37.70
38488;DHT22;57384;51.986;4.458;2023-04-27T16:51:39;18.60;37.70
38488;DHT22;57384;51.986;4.458;2023-04-27T16:54:23;18.50;37.70
38488;DHT22;57384;51.986;4.458;2023-04-27T16:57:07;18.40;37.70
38488;DHT22;57384;51.986;4.458;2023-04-27T16:59:55;18.40;37.70
38488;DHT22;57384;51.986;4.458;2023-04-27T17:02:42;18.30;37.50
38488;DHT22;57384;51.986;4.458;2023-04-27T17:05:32;18.20;37.90
38488;DHT22;57384;51.986;4.458;2023-04-27T17:08:19;18.20;38.30
38488;DHT22;57384;51.986;4.458;2023-04-27T17:11:19;18.10;38.00
38488;DHT22;57384;51.986;4.458;2023-04-27T17:14:10;18.00;38.00
38488;DHT22;57384;51.986;4.458;2023-04-27T17:17:04;17.90;38.50
38488;DHT22;57384;51.986;4.458;2023-04-27T17:19:51;17.80;38.40
38488;DHT22;57384;51.986;4.458;2023-04-27T17:22:36;17.80;38.50
38488;DHT22;57384;51.986;4.458;2023-04-27T17:25:24;17.70;38.50
38488;DHT22;57384;51.986;4.458;2023-04-27T17:28:14;17.60;38.70
38488;DHT22;57384;51.986;4.458;2023-04-27T17:30:58;17.60;38.70
38488;DHT22;57384;51.986;4.458;2023-04-27T17:34:01;17.50;38.90
38488;DHT22;57384;51.986;4.458;2023-04-27T17:36:45;17.40;39.00
38488;DHT22;57384;51.986;4.458;2023-04-27T17:39:44;17.40;39.20
38488;DHT22;57384;51.986;4.458;2023-04-27T17:42:37;17.20;39.30
38488;DHT22;57384;51.986;4.458;2023-04-27T17:45:21;17.20;39.50
38488;DHT22;57384;51.986;4.458;2023-04-27T17:48:23;17.10;39.40
38488;DHT22;57384;51.986;4.458;2023-04-27T17:51:08;17.10;40.10
38488;DHT22;57384;51.986;4.458;2023-04-27T17:53:55;17.00;40.00
38488;DHT22;57384;51.986;4.458;2023-04-27T17:56:45;16.90;39.90
38488;DHT22;57384;51.986;4.458;2023-04-27T17:59:30;16.90;39.80
38488;DHT22;57384;51.986;4.458;2023-04-27T18:02:14;16.80;40.20